createdAt,value
2018-12-26T00:03:09.867Z,19.63
2018-12-26T00:05:37.201Z,20.40
2018-12-26T00:08:04.509Z,21.80
2018-12-26T00:10:31.860Z,21.37
2018-12-26T00:12:59.259Z,22.00
2018-12-26T00:18:20.440Z,20.93
2018-12-26T00:20:49.478Z,20.80
2018-12-26T00:23:16.781Z,20.63
2018-12-26T00:25:44.110Z,20.73
2018-12-26T00:28:11.447Z,20.30
2018-12-26T00:30:38.793Z,20.17
2018-12-26T00:33:06.199Z,21.27
2018-12-26T00:35:33.593Z,19.23
2018-12-26T00:38:01.082Z,20.27
2018-12-26T00:40:40.317Z,20.63
2018-12-26T00:42:57.941Z,20.33
2018-12-26T00:45:25.250Z,19.87
2018-12-26T00:47:52.563Z,20.77
2018-12-26T00:50:19.893Z,20.27
2018-12-26T00:52:47.231Z,21.43
2018-12-26T00:55:14.645Z,20.33
2018-12-26T01:00:15.083Z,20.77
2018-12-26T01:02:42.408Z,20.63
2018-12-26T01:05:09.719Z,20.40
2018-12-26T01:07:37.052Z,20.27
2018-12-26T01:13:11.711Z,20.50
2018-12-26T01:15:39.035Z,20.13
2018-12-26T01:18:20.095Z,19.90
2018-12-26T01:20:36.241Z,19.50
2018-12-26T01:23:03.552Z,19.47
2018-12-26T01:25:30.870Z,19.77
2018-12-26T01:27:58.218Z,18.97
2018-12-26T01:30:25.550Z,19.77
2018-12-26T01:33:12.283Z,19.93
2018-12-26T01:35:39.602Z,20.57
2018-12-26T01:38:07.177Z,20.00
2018-12-26T01:40:34.485Z,20.30
2018-12-26T01:43:01.868Z,22.27
2018-12-26T01:45:29.238Z,21.47
2018-12-26T01:47:56.579Z,20.90
2018-12-26T01:50:24.249Z,20.40
2018-12-26T01:52:51.588Z,20.47
2018-12-26T01:55:19.284Z,20.17
2018-12-26T01:57:46.627Z,19.83
2018-12-26T02:00:13.925Z,18.67
2018-12-26T02:02:41.301Z,19.43
2018-12-26T02:05:08.691Z,19.67
2018-12-26T02:07:36.071Z,18.37
2018-12-26T02:13:10.752Z,17.60
2018-12-26T02:18:24.729Z,18.97
2018-12-26T02:23:45.791Z,18.43
2018-12-26T02:26:13.437Z,20.03
2018-12-26T02:31:27.281Z,19.87
2018-12-26T02:33:54.846Z,20.27
2018-12-26T02:36:22.178Z,19.93
2018-12-26T02:38:49.489Z,19.57
2018-12-26T02:41:16.800Z,19.00
2018-12-26T02:43:44.133Z,18.57
2018-12-26T02:46:11.722Z,19.20
2018-12-26T02:48:39.029Z,18.63
2018-12-26T02:51:06.356Z,19.17
2018-12-26T02:53:33.691Z,19.33
2018-12-26T02:56:20.360Z,19.53
2018-12-26T02:58:47.708Z,17.23
2018-12-26T03:01:15.028Z,17.73
2018-12-26T03:03:42.360Z,18.73
2018-12-26T03:06:09.686Z,19.40
2018-12-26T03:08:37.247Z,18.73
2018-12-26T03:11:04.574Z,18.10
2018-12-26T03:13:31.902Z,19.37
2018-12-26T03:15:59.240Z,17.73
2018-12-26T03:18:26.549Z,19.80
2018-12-26T03:20:53.890Z,18.07
2018-12-26T03:23:21.231Z,18.80
2018-12-26T03:25:48.930Z,18.80
2018-12-26T03:28:16.245Z,18.73
2018-12-26T03:30:43.567Z,18.03
2018-12-26T03:33:10.885Z,18.50
2018-12-26T03:35:38.216Z,18.00
2018-12-26T03:38:05.523Z,18.03
2018-12-26T03:43:26.835Z,18.93
2018-12-26T03:45:54.481Z,19.07
2018-12-26T03:48:41.287Z,23.43
2018-12-26T03:51:08.658Z,29.10
2018-12-26T03:56:08.994Z,23.53
2018-12-26T03:58:36.646Z,23.53
2018-12-26T04:01:04.202Z,22.37
2018-12-26T04:03:31.582Z,19.93
2018-12-26T04:05:58.888Z,20.90
2018-12-26T04:08:26.237Z,18.43
2018-12-26T04:10:53.798Z,18.50
2018-12-26T04:13:21.368Z,18.20
2018-12-26T04:18:55.993Z,18.23
2018-12-26T04:24:30.650Z,16.73
2018-12-26T04:26:57.962Z,17.40
2018-12-26T04:29:25.313Z,17.70
2018-12-26T04:31:52.701Z,17.80
2018-12-26T04:34:20.465Z,17.50
2018-12-26T04:36:47.873Z,17.10
2018-12-26T04:39:15.514Z,17.83
2018-12-26T04:41:42.868Z,18.00
2018-12-26T04:44:10.197Z,18.97
2018-12-26T04:46:37.646Z,20.80
2018-12-26T04:49:05.264Z,20.87
2018-12-26T04:51:34.134Z,21.00
2018-12-26T04:54:15.761Z,20.93
2018-12-26T04:56:30.570Z,22.83
2018-12-26T04:58:57.885Z,23.03
2018-12-26T05:01:44.619Z,23.10
2018-12-26T05:04:12.024Z,23.27
2018-12-26T05:06:39.758Z,22.47
2018-12-26T05:12:00.786Z,25.83
2018-12-26T05:14:28.094Z,23.47
2018-12-26T05:16:55.434Z,22.53
2018-12-26T05:19:22.816Z,22.03
2018-12-26T05:21:50.172Z,19.77
2018-12-26T05:24:17.514Z,19.43
2018-12-26T05:26:44.824Z,18.10
2018-12-26T05:29:12.554Z,17.70
2018-12-26T05:31:39.898Z,17.63
2018-12-26T05:34:07.214Z,17.33
2018-12-26T05:36:34.540Z,16.40
2018-12-26T05:39:01.846Z,17.17
2018-12-26T05:41:29.429Z,17.13
2018-12-26T05:43:56.765Z,16.90
2018-12-26T05:46:24.338Z,16.73
2018-12-26T05:48:51.650Z,17.20
2018-12-26T05:51:18.978Z,16.47
2018-12-26T05:53:46.290Z,16.17
2018-12-26T05:56:13.958Z,15.73
2018-12-26T05:58:41.269Z,16.97
2018-12-26T06:01:08.678Z,15.80
2018-12-26T06:03:37.632Z,14.77
2018-12-26T06:06:04.966Z,15.33
2018-12-26T06:08:32.282Z,15.53
2018-12-26T06:10:59.594Z,15.53
2018-12-26T06:13:26.919Z,15.07
2018-12-26T06:15:54.528Z,15.80
2018-12-26T06:18:21.862Z,14.80
2018-12-26T06:20:49.190Z,16.07
2018-12-26T06:23:16.794Z,15.83
2018-12-26T06:25:44.111Z,15.50
2018-12-26T06:28:11.421Z,15.90
2018-12-26T06:30:39.062Z,15.17
2018-12-26T06:33:06.374Z,14.77
2018-12-26T06:35:33.686Z,15.47
2018-12-26T06:40:34.732Z,15.03
2018-12-26T06:43:02.045Z,14.87
2018-12-26T06:45:29.374Z,15.93
2018-12-26T06:47:56.685Z,16.30
2018-12-26T06:50:23.997Z,16.47
2018-12-26T06:52:51.323Z,18.23
2018-12-26T06:55:18.634Z,18.40
2018-12-26T06:57:45.946Z,17.63
2018-12-26T07:00:13.555Z,21.00
2018-12-26T07:02:40.865Z,22.90
2018-12-26T07:05:08.177Z,20.77
2018-12-26T07:07:37.236Z,20.83
2018-12-26T07:13:12.103Z,17.20
2018-12-26T07:15:39.438Z,18.53
2018-12-26T07:18:06.756Z,18.00
2018-12-26T07:20:34.150Z,18.70
2018-12-26T07:23:01.772Z,18.90
2018-12-26T07:25:31.727Z,16.63
2018-12-26T07:27:59.102Z,18.30
2018-12-26T07:30:26.448Z,16.13
2018-12-26T07:33:13.120Z,14.80
2018-12-26T07:35:40.426Z,13.27
2018-12-26T07:38:07.865Z,13.43
2018-12-26T07:40:35.169Z,13.70
2018-12-26T07:43:02.499Z,14.63
2018-12-26T07:45:29.892Z,13.63
2018-12-26T07:47:57.203Z,13.83
2018-12-26T07:50:24.585Z,15.60
2018-12-26T07:52:51.900Z,13.47
2018-12-26T07:55:19.257Z,13.13
2018-12-26T07:57:46.569Z,12.70
2018-12-26T08:00:13.889Z,14.07
2018-12-26T08:02:41.295Z,14.30
2018-12-26T08:05:27.955Z,15.23
2018-12-26T08:07:55.334Z,15.53
2018-12-26T08:10:22.715Z,14.97
2018-12-26T08:12:50.040Z,17.20
2018-12-26T08:15:31.442Z,17.17
2018-12-26T08:17:46.550Z,17.20
2018-12-26T08:20:14.173Z,17.23
2018-12-26T08:22:41.675Z,17.17
2018-12-26T08:25:09.007Z,17.57
2018-12-26T08:30:43.582Z,16.90
2018-12-26T08:33:10.909Z,17.03
2018-12-26T08:35:57.576Z,18.03
2018-12-26T08:38:24.967Z,16.97
2018-12-26T08:40:52.330Z,17.43
2018-12-26T08:43:19.652Z,18.80
2018-12-26T08:45:46.989Z,16.97
2018-12-26T08:48:14.299Z,15.97
2018-12-26T08:50:41.848Z,14.17
2018-12-26T08:53:09.214Z,12.30
2018-12-26T08:55:36.547Z,11.27
2018-12-26T08:58:03.862Z,12.20
2018-12-26T09:00:31.297Z,12.20
2018-12-26T09:02:58.694Z,12.70
2018-12-26T09:05:26.038Z,14.10
2018-12-26T09:07:53.346Z,13.43
2018-12-26T09:10:20.660Z,12.73
2018-12-26T09:12:48.010Z,12.63
2018-12-26T09:15:15.374Z,11.17
2018-12-26T09:17:42.711Z,12.10
2018-12-26T09:20:10.029Z,12.40
2018-12-26T09:22:37.370Z,10.87
2018-12-26T09:28:11.942Z,11.17
2018-12-26T09:30:39.249Z,10.77
2018-12-26T09:33:06.590Z,11.90
2018-12-26T09:35:33.903Z,10.93
2018-12-26T09:38:01.241Z,11.60
2018-12-26T09:40:28.701Z,10.60
2018-12-26T09:42:57.975Z,10.80
2018-12-26T09:45:25.598Z,11.97
2018-12-26T09:47:52.978Z,11.77
2018-12-26T09:50:20.369Z,10.70
2018-12-26T09:52:47.677Z,11.17
2018-12-26T09:55:14.990Z,10.63
2018-12-26T09:57:42.317Z,11.57
2018-12-26T10:00:09.697Z,11.27
2018-12-26T10:02:37.098Z,10.50
2018-12-26T10:07:57.881Z,13.53
2018-12-26T10:10:25.195Z,10.73
2018-12-26T10:12:52.554Z,10.37
2018-12-26T10:15:19.864Z,10.83
2018-12-26T10:17:47.174Z,10.40
2018-12-26T10:20:14.522Z,10.17
2018-12-26T10:22:41.858Z,10.20
2018-12-26T10:25:09.450Z,11.00
2018-12-26T10:27:36.843Z,9.63
2018-12-26T10:33:11.443Z,10.63
2018-12-26T10:35:38.786Z,9.93
2018-12-26T10:38:06.496Z,9.43
2018-12-26T10:40:33.890Z,13.83
2018-12-26T10:43:01.246Z,9.47
2018-12-26T10:45:28.562Z,8.87
2018-12-26T10:47:56.025Z,10.30
2018-12-26T10:50:23.354Z,10.67
2018-12-26T10:52:50.705Z,9.80
2018-12-26T10:55:18.022Z,10.23
2018-12-26T10:57:45.402Z,10.50
2018-12-26T11:00:12.754Z,9.83
2018-12-26T11:02:40.106Z,9.87
2018-12-26T11:05:07.495Z,9.00
2018-12-26T11:07:34.829Z,9.20
2018-12-26T11:10:02.222Z,8.60
2018-12-26T11:12:29.582Z,8.93
2018-12-26T11:14:56.910Z,9.77
2018-12-26T11:17:24.317Z,8.77
2018-12-26T11:22:58.986Z,9.67
2018-12-26T11:25:26.338Z,9.13
2018-12-26T11:27:53.738Z,8.87
2018-12-26T11:30:21.057Z,9.30
2018-12-26T11:32:48.397Z,9.43
2018-12-26T11:35:16.046Z,8.90
2018-12-26T11:37:43.542Z,8.73
2018-12-26T11:40:10.895Z,8.53
2018-12-26T11:42:38.202Z,8.80
2018-12-26T11:45:26.598Z,8.70
2018-12-26T11:47:53.995Z,8.37
2018-12-26T11:50:21.300Z,8.80
2018-12-26T11:52:48.609Z,8.40
2018-12-26T11:55:16.050Z,8.47
2018-12-26T11:57:43.389Z,9.10
2018-12-26T12:00:10.694Z,9.13
2018-12-26T12:02:38.002Z,8.23
2018-12-26T12:07:59.525Z,8.80
2018-12-26T12:10:26.909Z,8.90
2018-12-26T12:12:54.274Z,8.30
2018-12-26T12:15:21.617Z,8.53
2018-12-26T12:20:42.986Z,8.03
2018-12-26T12:23:10.490Z,6.53
2018-12-26T12:25:37.795Z,7.10
2018-12-26T12:28:05.130Z,7.00
2018-12-26T12:30:32.438Z,8.87
2018-12-26T12:32:59.846Z,7.00
2018-12-26T12:35:27.308Z,6.50
2018-12-26T12:37:55.049Z,6.10
2018-12-26T12:40:22.723Z,6.33
2018-12-26T12:42:51.090Z,6.57
2018-12-26T12:45:18.423Z,6.27
2018-12-26T12:47:45.729Z,6.30
2018-12-26T12:50:13.054Z,6.70
2018-12-26T12:52:40.390Z,7.23
2018-12-26T12:55:07.699Z,9.83
2018-12-26T12:57:35.017Z,6.87
2018-12-26T13:00:02.353Z,6.10
2018-12-26T13:02:29.653Z,5.90
2018-12-26T13:04:56.977Z,7.60
2018-12-26T13:07:24.296Z,7.17
2018-12-26T13:09:51.614Z,7.43
2018-12-26T13:12:18.945Z,7.00
2018-12-26T13:14:46.255Z,6.53
2018-12-26T13:17:13.838Z,6.80
2018-12-26T13:19:41.142Z,6.90
2018-12-26T13:22:08.473Z,7.23
2018-12-26T13:24:35.853Z,7.57
2018-12-26T13:27:03.458Z,7.60
2018-12-26T13:29:30.797Z,8.33
2018-12-26T13:31:58.474Z,9.30
2018-12-26T13:34:25.778Z,8.73
2018-12-26T13:36:53.385Z,8.73
2018-12-26T13:39:20.693Z,8.47
2018-12-26T13:41:48.005Z,9.40
2018-12-26T13:44:15.326Z,8.93
2018-12-26T13:46:43.005Z,9.50
2018-12-26T13:49:10.314Z,8.77
2018-12-26T13:51:45.482Z,9.47
2018-12-26T13:54:12.886Z,8.77
2018-12-26T13:56:40.193Z,8.83
2018-12-26T13:59:07.556Z,8.80
2018-12-26T14:01:34.914Z,9.57
2018-12-26T14:04:02.250Z,9.93
2018-12-26T14:06:29.554Z,9.27
2018-12-26T14:08:56.891Z,9.07
2018-12-26T14:11:24.197Z,8.47
2018-12-26T14:13:51.529Z,8.30
2018-12-26T14:16:18.864Z,8.70
2018-12-26T14:18:46.188Z,8.40
2018-12-26T14:21:13.502Z,7.97
2018-12-26T14:23:40.834Z,8.70
2018-12-26T14:26:08.166Z,8.70
2018-12-26T14:28:35.480Z,8.73
2018-12-26T14:31:02.809Z,9.37
2018-12-26T14:33:30.401Z,8.40
2018-12-26T14:35:57.804Z,8.10
2018-12-26T14:38:25.109Z,8.07
2018-12-26T14:40:52.449Z,8.53
2018-12-26T14:43:19.747Z,7.83
2018-12-26T14:45:47.074Z,8.37
2018-12-26T14:48:14.457Z,7.67
2018-12-26T14:53:35.961Z,8.47
2018-12-26T14:56:03.273Z,8.13
2018-12-26T14:58:30.598Z,8.30
2018-12-26T15:00:57.929Z,8.33
2018-12-26T15:03:25.263Z,8.63
2018-12-26T15:05:52.597Z,9.40
2018-12-26T15:08:20.182Z,8.53
2018-12-26T15:10:47.846Z,8.90
2018-12-26T15:13:15.401Z,9.73
2018-12-26T15:15:42.705Z,8.93
2018-12-26T15:18:10.316Z,9.03
2018-12-26T15:20:37.621Z,9.23
2018-12-26T15:23:04.949Z,8.80
2018-12-26T15:25:32.261Z,11.27
2018-12-26T15:27:59.602Z,10.43
2018-12-26T15:30:28.638Z,10.97
2018-12-26T15:32:55.982Z,13.57
2018-12-26T15:35:23.297Z,13.43
2018-12-26T15:37:50.886Z,11.33
2018-12-26T15:40:18.229Z,10.30
2018-12-26T15:42:45.542Z,10.57
2018-12-26T15:45:12.853Z,10.37
2018-12-26T15:47:40.505Z,10.37
2018-12-26T15:50:08.063Z,10.70
2018-12-26T15:52:35.369Z,10.37
2018-12-26T15:55:02.709Z,11.47
2018-12-26T15:57:30.034Z,10.70
2018-12-26T15:59:57.409Z,11.13
2018-12-26T16:02:24.757Z,11.67
2018-12-26T16:04:52.094Z,11.73
2018-12-26T16:07:19.402Z,11.77
2018-12-26T16:09:46.729Z,13.97
2018-12-26T16:12:14.070Z,14.40
2018-12-26T16:14:41.394Z,12.53
2018-12-26T16:17:08.715Z,10.50
2018-12-26T16:19:36.316Z,10.67
2018-12-26T16:22:03.696Z,9.83
2018-12-26T16:24:31.141Z,10.50
2018-12-26T16:26:58.414Z,11.37
2018-12-26T16:29:25.757Z,9.23
2018-12-26T16:31:53.057Z,8.97
2018-12-26T16:34:20.639Z,9.50
2018-12-26T16:36:47.973Z,10.07
2018-12-26T16:39:15.552Z,10.83
2018-12-26T16:41:42.883Z,10.03
2018-12-26T16:44:10.194Z,10.83
2018-12-26T16:46:37.530Z,10.83
2018-12-26T16:49:04.840Z,11.20
2018-12-26T16:51:32.166Z,13.17
2018-12-26T16:53:59.487Z,13.60
2018-12-26T16:56:27.245Z,12.87
2018-12-26T16:58:54.573Z,12.93
2018-12-26T17:01:21.885Z,13.17
2018-12-26T17:03:49.497Z,13.50
2018-12-26T17:06:16.835Z,19.10
2018-12-26T17:08:44.409Z,15.10
2018-12-26T17:11:11.735Z,15.60
2018-12-26T17:13:39.072Z,14.87
2018-12-26T17:16:06.377Z,13.90
2018-12-26T17:18:34.030Z,14.40
2018-12-26T17:21:01.337Z,13.93
2018-12-26T17:23:28.679Z,14.70
2018-12-26T17:25:55.995Z,16.17
2018-12-26T17:28:23.334Z,14.67
2018-12-26T17:30:50.650Z,14.20
2018-12-26T17:33:17.996Z,14.13
2018-12-26T17:35:45.305Z,15.07
2018-12-26T17:38:12.862Z,14.20
2018-12-26T17:40:40.194Z,14.97
2018-12-26T17:43:07.775Z,14.17
2018-12-26T17:45:54.677Z,15.57
2018-12-26T17:48:22.025Z,14.87
2018-12-26T17:54:15.950Z,15.03
2018-12-26T18:02:30.422Z,16.67
2018-12-26T18:04:57.758Z,16.73
2018-12-26T18:07:25.336Z,15.87
2018-12-26T18:09:52.677Z,15.60
2018-12-26T18:12:19.990Z,14.83
2018-12-26T18:14:47.300Z,15.20
2018-12-26T18:17:14.954Z,15.40
2018-12-26T18:19:42.323Z,14.97
2018-12-26T18:22:09.748Z,14.83
2018-12-26T18:24:37.322Z,15.77
2018-12-26T18:27:04.634Z,15.37
2018-12-26T18:29:32.242Z,13.43
2018-12-26T18:32:01.305Z,14.63
2018-12-26T18:34:28.646Z,15.57
2018-12-26T18:36:55.955Z,18.93
2018-12-26T18:39:23.273Z,16.77
2018-12-26T18:44:57.853Z,14.67
2018-12-26T18:47:25.201Z,16.17
2018-12-26T18:49:52.523Z,14.37
2018-12-26T18:52:19.829Z,15.70
2018-12-26T18:54:47.162Z,14.73
2018-12-26T18:57:14.477Z,20.07
2018-12-26T18:59:41.801Z,22.13
2018-12-26T19:02:09.118Z,14.03
2018-12-26T19:04:36.454Z,13.30
2018-12-26T19:07:23.135Z,13.67
2018-12-26T19:09:50.471Z,13.87
2018-12-26T19:12:18.575Z,13.83
2018-12-26T19:14:45.890Z,13.60
2018-12-26T19:17:13.502Z,12.67
2018-12-26T19:19:41.227Z,13.43
2018-12-26T19:22:08.822Z,12.87
2018-12-26T19:24:36.145Z,13.07
2018-12-26T19:27:03.474Z,12.80
2018-12-26T19:29:31.085Z,12.17
2018-12-26T19:31:58.420Z,11.77
2018-12-26T19:34:25.735Z,11.80
2018-12-26T19:37:12.346Z,11.20
2018-12-26T19:39:39.663Z,11.37
2018-12-26T19:42:07.314Z,11.83
2018-12-26T19:44:34.987Z,12.10
2018-12-26T19:47:21.635Z,11.67
2018-12-26T19:49:48.972Z,11.73
2018-12-26T19:52:16.294Z,11.40
2018-12-26T19:54:43.607Z,12.57
2018-12-26T19:57:10.942Z,12.23
2018-12-26T19:59:38.554Z,11.23
2018-12-26T20:02:05.896Z,12.03
2018-12-26T20:04:33.464Z,11.57
2018-12-26T20:07:00.811Z,12.07
2018-12-26T20:09:28.478Z,10.93
2018-12-26T20:12:16.630Z,11.43
2018-12-26T20:14:43.970Z,12.17
2018-12-26T20:17:11.300Z,12.40
2018-12-26T20:19:38.626Z,15.07
2018-12-26T20:22:05.954Z,17.60
2018-12-26T20:24:33.270Z,15.27
2018-12-26T20:27:00.645Z,12.47
2018-12-26T20:29:27.950Z,12.20
2018-12-26T20:31:57.039Z,12.20
2018-12-26T20:34:24.358Z,10.90
2018-12-26T20:36:51.669Z,11.43
2018-12-26T20:39:19.005Z,11.07
2018-12-26T20:41:46.600Z,11.23
2018-12-26T20:44:13.926Z,13.83
2018-12-26T20:46:41.234Z,21.33
2018-12-26T20:49:08.579Z,13.67
2018-12-26T20:51:35.886Z,12.90
2018-12-26T20:54:03.217Z,12.57
2018-12-26T20:56:30.541Z,12.60
2018-12-26T20:58:58.184Z,11.83
2018-12-26T21:01:25.845Z,12.47
2018-12-26T21:03:53.194Z,12.03
2018-12-26T21:06:20.505Z,12.20
2018-12-26T21:08:48.105Z,12.43
2018-12-26T21:11:15.448Z,12.80
2018-12-26T21:13:43.876Z,12.73
2018-12-26T21:16:12.086Z,12.37
2018-12-26T21:18:39.399Z,11.50
2018-12-26T21:21:06.795Z,12.83
2018-12-26T21:23:34.131Z,12.90
2018-12-26T21:26:01.437Z,12.63
2018-12-26T21:28:28.849Z,14.23
2018-12-26T21:30:56.158Z,12.47
2018-12-26T21:33:23.586Z,13.40
2018-12-26T21:35:50.899Z,13.77
2018-12-26T21:38:18.214Z,12.27
2018-12-26T21:40:45.858Z,11.63
2018-12-26T21:43:13.524Z,10.23
2018-12-26T21:45:40.835Z,10.77
2018-12-26T21:48:08.174Z,9.80
2018-12-26T21:50:35.511Z,10.40
2018-12-26T21:53:02.821Z,10.53
2018-12-26T21:55:30.501Z,11.30
2018-12-26T21:57:57.828Z,9.43
2018-12-26T22:00:25.146Z,9.90
2018-12-26T22:02:52.757Z,10.07
2018-12-26T22:05:20.418Z,9.53
2018-12-26T22:07:47.980Z,9.73
2018-12-26T22:10:15.633Z,9.70
2018-12-26T22:12:42.969Z,9.63
2018-12-26T22:15:10.274Z,9.83
2018-12-26T22:17:37.608Z,10.00
2018-12-26T22:23:12.454Z,9.47
2018-12-26T22:25:39.789Z,8.90
2018-12-26T22:28:07.098Z,9.37
2018-12-26T22:30:34.401Z,8.67
2018-12-26T22:33:01.729Z,9.23
2018-12-26T22:35:29.053Z,8.97
2018-12-26T22:37:56.385Z,9.13
2018-12-26T22:40:23.693Z,9.27
2018-12-26T22:42:51.005Z,8.70
2018-12-26T22:45:18.337Z,9.10
2018-12-26T22:48:04.989Z,8.63
2018-12-26T22:50:32.318Z,9.10
2018-12-26T22:52:59.941Z,9.53
2018-12-26T22:55:27.274Z,10.23
2018-12-26T22:57:54.615Z,9.30
2018-12-26T23:03:10.007Z,9.20
2018-12-26T23:05:37.334Z,8.80
2018-12-26T23:08:04.664Z,9.30
2018-12-26T23:10:31.970Z,9.23
2018-12-26T23:12:59.302Z,9.37
2018-12-26T23:15:26.922Z,10.67
2018-12-26T23:17:54.259Z,16.23
2018-12-26T23:20:21.831Z,16.30
2018-12-26T23:22:49.141Z,17.40
2018-12-26T23:25:16.477Z,12.53
2018-12-26T23:27:43.789Z,11.03
2018-12-26T23:30:11.109Z,13.07
2018-12-26T23:32:38.454Z,18.70
2018-12-26T23:35:05.768Z,18.20
2018-12-26T23:37:33.119Z,13.63
2018-12-26T23:40:00.481Z,15.13
2018-12-26T23:42:27.814Z,16.70
2018-12-26T23:44:55.141Z,13.00
2018-12-26T23:47:22.481Z,12.47
2018-12-26T23:49:50.477Z,10.10
2018-12-26T23:52:17.790Z,9.83
2018-12-26T23:54:45.134Z,10.00
2018-12-26T23:57:12.459Z,9.77
2018-12-26T23:59:40.102Z,9.80
